createdAt,value
2022-08-16T00:02:24.651Z,13.80
2022-08-16T00:04:51.680Z,13.84
2022-08-16T00:07:19.493Z,13.88
2022-08-16T00:09:47.595Z,13.81
2022-08-16T00:12:17.935Z,13.76
2022-08-16T00:14:45.360Z,13.64
2022-08-16T00:17:18.365Z,13.56
2022-08-16T00:19:47.192Z,13.64
2022-08-16T00:22:15.953Z,13.66
2022-08-16T00:24:44.902Z,13.67
2022-08-16T00:27:14.028Z,13.88
2022-08-16T00:29:40.956Z,13.68
2022-08-16T00:32:09.050Z,13.68
2022-08-16T00:34:44.374Z,13.75
2022-08-16T00:37:24.561Z,13.94
2022-08-16T00:39:58.087Z,13.89
2022-08-16T00:42:31.839Z,13.79
2022-08-16T00:45:08.642Z,13.48
2022-08-16T00:47:49.396Z,13.29
2022-08-16T00:50:20.508Z,13.42
2022-08-16T00:52:51.091Z,13.48
2022-08-16T00:55:20.663Z,13.37
2022-08-16T00:57:58.761Z,13.39
2022-08-16T01:00:30.319Z,13.35
2022-08-16T01:02:59.589Z,13.20
2022-08-16T01:05:26.675Z,13.21
2022-08-16T01:07:54.258Z,13.17
2022-08-16T01:10:31.172Z,13.33
2022-08-16T01:13:04.571Z,13.32
2022-08-16T01:15:33.895Z,13.23
2022-08-16T01:18:02.185Z,13.21
2022-08-16T01:20:33.891Z,13.12
2022-08-16T01:23:12.955Z,13.30
2022-08-16T01:26:00.270Z,13.27
2022-08-16T01:28:38.785Z,13.24
2022-08-16T01:31:14.926Z,13.25
2022-08-16T01:33:44.621Z,12.83
2022-08-16T01:36:13.115Z,13.13
2022-08-16T01:38:49.075Z,13.27
2022-08-16T01:41:30.769Z,13.14
2022-08-16T01:44:00.951Z,13.05
2022-08-16T01:46:39.286Z,13.21
2022-08-16T01:49:20.210Z,12.97
2022-08-16T01:51:51.685Z,12.89
2022-08-16T01:54:31.024Z,12.91
2022-08-16T01:56:58.971Z,12.92
2022-08-16T01:59:27.917Z,13.12
2022-08-16T02:01:59.966Z,12.84
2022-08-16T02:04:48.388Z,12.82
2022-08-16T02:07:18.248Z,12.75
2022-08-16T02:09:57.365Z,12.71
2022-08-16T02:12:50.570Z,12.97
2022-08-16T02:15:16.894Z,12.76
2022-08-16T02:17:43.739Z,12.69
2022-08-16T02:20:12.353Z,12.79
2022-08-16T02:22:39.649Z,12.89
2022-08-16T02:25:14.660Z,12.73
2022-08-16T02:27:43.890Z,12.77
2022-08-16T02:30:35.999Z,12.77
2022-08-16T02:33:04.567Z,12.90
2022-08-16T02:35:33.281Z,12.75
2022-08-16T02:38:01.763Z,12.72
2022-08-16T02:40:35.452Z,12.64
2022-08-16T02:43:02.752Z,12.82
2022-08-16T02:45:29.580Z,12.80
2022-08-16T02:48:01.618Z,13.03
2022-08-16T02:50:53.944Z,12.84
2022-08-16T02:53:29.189Z,12.72
2022-08-16T02:55:56.768Z,12.85
2022-08-16T02:58:25.208Z,12.91
2022-08-16T03:00:55.988Z,12.85
2022-08-16T03:03:25.180Z,12.65
2022-08-16T03:05:53.310Z,12.62
2022-08-16T03:08:31.000Z,12.59
2022-08-16T03:11:16.561Z,12.51
2022-08-16T03:13:56.663Z,12.45
2022-08-16T03:16:38.788Z,12.41
2022-08-16T03:19:09.472Z,12.29
2022-08-16T03:21:38.485Z,12.30
2022-08-16T03:24:28.810Z,12.40
2022-08-16T03:26:59.011Z,12.46
2022-08-16T03:29:31.934Z,12.48
2022-08-16T03:32:01.515Z,12.48
2022-08-16T03:34:30.435Z,12.76
2022-08-16T03:36:57.875Z,12.53
2022-08-16T03:39:25.453Z,12.66
2022-08-16T03:41:59.580Z,12.45
2022-08-16T03:44:43.502Z,12.35
2022-08-16T03:47:19.255Z,12.49
2022-08-16T03:49:51.560Z,12.35
2022-08-16T03:52:23.504Z,12.35
2022-08-16T03:54:57.452Z,12.53
2022-08-16T03:57:31.973Z,12.38
2022-08-16T04:00:20.663Z,12.03
2022-08-16T04:03:07.094Z,12.16
2022-08-16T04:05:40.988Z,12.28
2022-08-16T04:08:23.148Z,12.26
2022-08-16T04:10:55.672Z,12.06
2022-08-16T04:14:00.031Z,12.07
2022-08-16T04:16:27.152Z,12.51
2022-08-16T04:19:02.794Z,12.45
2022-08-16T04:21:36.035Z,12.25
2022-08-16T04:24:12.855Z,12.25
2022-08-16T04:26:45.861Z,12.30
2022-08-16T04:29:23.828Z,12.43
2022-08-16T04:31:55.550Z,12.79
2022-08-16T04:34:22.474Z,12.42
2022-08-16T04:36:52.079Z,12.32
2022-08-16T04:39:20.204Z,12.30
2022-08-16T04:41:57.015Z,12.42
2022-08-16T04:44:52.895Z,12.39
2022-08-16T04:47:21.785Z,12.45
2022-08-16T04:49:52.271Z,12.60
2022-08-16T04:52:32.894Z,12.66
2022-08-16T04:55:06.072Z,12.71
2022-08-16T04:57:32.872Z,12.32
2022-08-16T04:59:59.716Z,12.36
2022-08-16T05:02:54.977Z,12.10
2022-08-16T05:05:23.239Z,12.42
2022-08-16T05:07:58.681Z,12.62
2022-08-16T05:10:30.772Z,12.75
2022-08-16T05:13:02.149Z,12.80
2022-08-16T05:15:29.935Z,12.86
2022-08-16T05:17:59.841Z,12.89
2022-08-16T05:20:39.349Z,12.94
2022-08-16T05:23:13.735Z,13.10
2022-08-16T05:25:48.296Z,13.21
2022-08-16T05:28:17.476Z,13.36
2022-08-16T05:30:45.096Z,13.45
2022-08-16T05:33:18.066Z,13.49
2022-08-16T05:35:55.147Z,13.55
2022-08-16T05:38:32.464Z,13.43
2022-08-16T05:41:04.104Z,13.43
2022-08-16T05:43:32.074Z,13.61
2022-08-16T05:46:28.654Z,13.60
2022-08-16T05:49:08.659Z,13.73
2022-08-16T05:51:38.460Z,13.72
2022-08-16T05:54:06.522Z,13.93
2022-08-16T05:56:34.272Z,14.23
2022-08-16T05:59:06.292Z,14.21
2022-08-16T06:01:38.321Z,14.52
2022-08-16T06:04:13.146Z,14.74
2022-08-16T06:06:43.399Z,14.80
2022-08-16T06:09:25.843Z,14.94
2022-08-16T06:12:27.517Z,15.06
2022-08-16T06:15:01.819Z,15.20
2022-08-16T06:17:42.329Z,15.35
2022-08-16T06:20:24.179Z,15.33
2022-08-16T06:23:02.797Z,15.21
2022-08-16T06:25:36.489Z,15.58
2022-08-16T06:28:08.934Z,15.71
2022-08-16T06:30:44.169Z,15.91
2022-08-16T06:33:22.280Z,15.74
2022-08-16T06:35:55.145Z,15.97
2022-08-16T06:38:32.701Z,16.20
2022-08-16T06:41:03.810Z,16.38
2022-08-16T06:43:32.111Z,16.16
2022-08-16T06:45:59.392Z,16.26
2022-08-16T06:48:33.160Z,16.44
2022-08-16T06:51:05.616Z,16.57
2022-08-16T06:53:35.710Z,16.64
2022-08-16T06:56:13.841Z,16.66
2022-08-16T06:58:45.253Z,16.87
2022-08-16T07:01:15.633Z,16.90
2022-08-16T07:03:54.534Z,17.08
2022-08-16T07:06:26.518Z,17.30
2022-08-16T07:08:53.992Z,17.58
2022-08-16T07:11:21.024Z,17.66
2022-08-16T07:14:25.193Z,17.70
2022-08-16T07:16:58.393Z,17.87
2022-08-16T07:20:02.050Z,18.12
2022-08-16T07:22:37.568Z,18.02
2022-08-16T07:25:04.923Z,18.10
2022-08-16T07:27:32.089Z,18.25
2022-08-16T07:30:00.972Z,18.34
2022-08-16T07:32:29.586Z,18.38
2022-08-16T07:34:56.533Z,18.59
2022-08-16T07:37:23.739Z,18.65
2022-08-16T07:39:51.956Z,18.86
2022-08-16T07:42:28.175Z,18.83
2022-08-16T07:45:02.652Z,19.01
2022-08-16T07:47:31.311Z,19.08
2022-08-16T07:49:59.943Z,19.21
2022-08-16T07:52:32.773Z,19.31
2022-08-16T07:55:00.063Z,19.69
2022-08-16T07:57:26.932Z,19.87
2022-08-16T07:59:53.713Z,19.77
2022-08-16T08:02:27.364Z,19.86
2022-08-16T08:04:55.547Z,20.03
2022-08-16T08:07:28.147Z,20.02
2022-08-16T08:09:55.980Z,20.17
2022-08-16T08:12:32.126Z,20.25
2022-08-16T08:15:05.436Z,20.47
2022-08-16T08:17:42.758Z,20.58
2022-08-16T08:20:20.081Z,20.69
2022-08-16T08:23:01.139Z,20.96
2022-08-16T08:25:54.450Z,20.98
2022-08-16T08:28:18.536Z,21.12
2022-08-16T08:30:51.319Z,21.42
2022-08-16T08:33:24.136Z,21.35
2022-08-16T08:35:50.850Z,21.48
2022-08-16T08:38:45.136Z,21.65
2022-08-16T08:41:08.065Z,21.77
2022-08-16T08:43:36.366Z,21.79
2022-08-16T08:46:12.426Z,21.86
2022-08-16T08:48:59.454Z,21.82
2022-08-16T08:51:35.801Z,22.23
2022-08-16T08:54:09.352Z,22.15
2022-08-16T08:56:45.189Z,22.31
2022-08-16T08:59:19.869Z,22.17
2022-08-16T09:01:57.334Z,22.41
2022-08-16T09:04:26.822Z,22.23
2022-08-16T09:06:55.386Z,22.29
2022-08-16T09:09:23.010Z,22.59
2022-08-16T09:11:53.787Z,22.80
2022-08-16T09:14:32.163Z,22.73
2022-08-16T09:17:03.287Z,22.74
2022-08-16T09:19:40.641Z,23.01
2022-08-16T09:22:19.804Z,22.94
2022-08-16T09:24:52.859Z,23.17
2022-08-16T09:27:25.245Z,23.14
2022-08-16T09:30:00.295Z,22.95
2022-08-16T09:32:31.180Z,23.03
2022-08-16T09:34:59.836Z,22.94
2022-08-16T09:37:36.915Z,23.40
2022-08-16T09:40:31.593Z,23.46
2022-08-16T09:42:59.219Z,23.39
2022-08-16T09:45:28.881Z,23.66
2022-08-16T09:47:58.171Z,23.62
2022-08-16T09:50:36.990Z,23.49
2022-08-16T09:53:15.481Z,23.56
2022-08-16T09:55:49.163Z,23.84
2022-08-16T09:58:37.904Z,24.03
2022-08-16T10:01:08.631Z,24.06
2022-08-16T10:03:38.640Z,23.89
2022-08-16T10:06:33.082Z,23.87
2022-08-16T10:09:05.781Z,23.80
2022-08-16T10:11:53.280Z,24.05
2022-08-16T10:14:24.718Z,24.22
2022-08-16T10:17:02.432Z,24.00
2022-08-16T10:19:31.799Z,24.38
2022-08-16T10:21:59.458Z,24.21
2022-08-16T10:24:33.418Z,24.50
2022-08-16T10:27:26.152Z,24.46
2022-08-16T10:30:01.084Z,24.35
2022-08-16T10:32:34.257Z,24.50
2022-08-16T10:35:03.629Z,24.76
2022-08-16T10:37:32.308Z,24.61
2022-08-16T10:40:28.375Z,24.78
2022-08-16T10:42:54.353Z,24.26
2022-08-16T10:45:21.180Z,25.15
2022-08-16T10:47:58.948Z,25.28
2022-08-16T10:50:32.315Z,25.25
2022-08-16T10:52:59.744Z,25.50
2022-08-16T10:55:44.462Z,25.32
2022-08-16T10:58:14.117Z,25.43
2022-08-16T11:00:45.996Z,25.34
2022-08-16T11:06:03.430Z,25.54
2022-08-16T11:08:37.461Z,25.10
2022-08-16T11:11:12.813Z,25.35
2022-08-16T11:14:11.393Z,25.25
2022-08-16T11:19:20.314Z,25.44
2022-08-16T11:24:44.586Z,25.81
2022-08-16T11:27:23.842Z,25.91
2022-08-16T11:29:56.555Z,25.78
2022-08-16T11:32:31.638Z,25.77
2022-08-16T11:35:10.728Z,26.05
2022-08-16T11:40:36.243Z,25.93
2022-08-16T11:43:04.589Z,26.01
2022-08-16T11:45:33.968Z,25.78
2022-08-16T11:48:04.086Z,25.68
2022-08-16T11:50:33.436Z,25.94
2022-08-16T11:53:03.653Z,25.90
2022-08-16T11:55:31.478Z,26.32
2022-08-16T11:58:00.132Z,25.89
2022-08-16T12:00:33.651Z,25.27
2022-08-16T12:03:17.536Z,26.51
2022-08-16T12:05:46.013Z,26.57
2022-08-16T12:08:12.994Z,26.48
2022-08-16T12:10:43.234Z,26.37
2022-08-16T12:13:11.812Z,26.36
2022-08-16T12:15:40.277Z,26.65
2022-08-16T12:18:08.114Z,27.25
2022-08-16T12:20:40.383Z,26.58
2022-08-16T12:23:07.659Z,26.85
2022-08-16T12:25:36.240Z,26.49
2022-08-16T12:28:06.485Z,26.80
2022-08-16T12:30:39.149Z,26.61
2022-08-16T12:33:07.951Z,26.68
2022-08-16T12:35:38.220Z,26.49
2022-08-16T12:38:08.633Z,27.09
2022-08-16T12:40:55.700Z,26.59
2022-08-16T12:43:25.448Z,26.76
2022-08-16T12:45:55.380Z,26.69
2022-08-16T12:48:52.593Z,27.44
2022-08-16T12:51:24.019Z,27.09
2022-08-16T12:53:54.411Z,26.28
2022-08-16T12:56:25.632Z,26.67
2022-08-16T12:58:55.964Z,27.61
2022-08-16T13:01:26.861Z,27.43
2022-08-16T13:04:19.616Z,27.45
2022-08-16T13:06:45.304Z,27.15
2022-08-16T13:09:21.821Z,27.74
2022-08-16T13:12:20.937Z,27.40
2022-08-16T13:14:49.835Z,27.29
2022-08-16T13:17:29.485Z,28.88
2022-08-16T13:20:12.568Z,28.48
2022-08-16T13:22:47.241Z,28.81
2022-08-16T13:25:21.345Z,28.24
2022-08-16T13:28:02.244Z,27.85
2022-08-16T13:30:41.244Z,27.27
2022-08-16T13:33:13.458Z,28.06
2022-08-16T13:35:44.679Z,28.22
2022-08-16T13:38:24.245Z,27.76
2022-08-16T13:40:51.590Z,30.30
2022-08-16T13:43:19.601Z,29.08
2022-08-16T13:45:46.271Z,29.71
2022-08-16T13:48:24.936Z,30.14
2022-08-16T13:50:54.637Z,30.54
2022-08-16T13:53:24.527Z,30.16
2022-08-16T13:55:58.615Z,28.85
2022-08-16T13:58:35.307Z,28.56
2022-08-16T14:01:09.774Z,28.17
2022-08-16T14:03:38.836Z,28.39
2022-08-16T14:06:10.837Z,28.15
2022-08-16T14:08:43.098Z,28.62
2022-08-16T14:11:12.453Z,27.71
2022-08-16T14:13:42.151Z,28.35
2022-08-16T14:16:12.687Z,28.29
2022-08-16T14:18:50.459Z,32.45
2022-08-16T14:21:23.582Z,33.20
2022-08-16T14:23:52.052Z,38.34
2022-08-16T14:26:21.179Z,34.50
2022-08-16T14:28:50.802Z,36.86
2022-08-16T14:31:18.613Z,33.89
2022-08-16T14:33:45.950Z,35.15
2022-08-16T14:36:18.754Z,36.97
2022-08-16T14:38:51.944Z,38.71
2022-08-16T14:41:18.731Z,37.51
2022-08-16T14:43:45.447Z,40.15
2022-08-16T14:46:12.336Z,39.07
2022-08-16T14:48:39.044Z,38.07
2022-08-16T14:51:05.869Z,33.83
2022-08-16T14:53:33.425Z,34.34
2022-08-16T14:56:00.143Z,38.38
2022-08-16T14:58:34.466Z,41.25
2022-08-16T15:01:04.599Z,40.03
2022-08-16T15:03:32.988Z,38.61
2022-08-16T15:06:01.682Z,40.95
2022-08-16T15:08:36.245Z,39.63
2022-08-16T15:11:06.113Z,39.59
2022-08-16T15:13:35.003Z,36.32
2022-08-16T15:16:02.998Z,38.72
2022-08-16T15:18:32.318Z,35.27
2022-08-16T15:21:01.713Z,34.85
2022-08-16T15:23:28.432Z,35.78
2022-08-16T15:26:02.932Z,35.79
2022-08-16T15:28:32.824Z,32.31
2022-08-16T15:31:06.196Z,35.99
2022-08-16T15:33:35.729Z,37.57
2022-08-16T15:36:09.722Z,36.20
2022-08-16T15:39:02.157Z,37.38
2022-08-16T15:41:43.077Z,38.86
2022-08-16T15:44:13.160Z,37.79
2022-08-16T15:46:54.894Z,34.49
2022-08-16T15:49:37.311Z,35.33
2022-08-16T15:52:15.148Z,34.62
2022-08-16T15:54:52.384Z,35.97
2022-08-16T15:57:22.340Z,37.12
2022-08-16T15:59:55.659Z,35.91
2022-08-16T16:02:30.375Z,33.88
2022-08-16T16:05:01.830Z,34.44
2022-08-16T16:07:30.151Z,33.80
2022-08-16T16:09:59.243Z,33.81
2022-08-16T16:12:51.461Z,35.11
2022-08-16T16:15:22.914Z,35.62
2022-08-16T16:17:52.472Z,37.53
2022-08-16T16:20:22.128Z,35.77
2022-08-16T16:22:51.692Z,36.03
2022-08-16T16:25:19.372Z,35.59
2022-08-16T16:27:55.967Z,36.30
2022-08-16T16:30:37.593Z,36.31
2022-08-16T16:33:21.053Z,36.54
2022-08-16T16:35:57.217Z,35.47
2022-08-16T16:38:30.688Z,33.86
2022-08-16T16:41:02.408Z,33.63
2022-08-16T16:43:31.856Z,33.68
2022-08-16T16:46:01.740Z,34.77
2022-08-16T16:48:35.326Z,33.47
2022-08-16T16:51:09.022Z,32.17
2022-08-16T16:53:39.324Z,30.73
2022-08-16T16:56:08.883Z,30.41
2022-08-16T16:59:01.171Z,28.66
2022-08-16T17:01:56.642Z,28.01
2022-08-16T17:04:31.467Z,28.39
2022-08-16T17:06:59.493Z,28.54
2022-08-16T17:09:27.103Z,27.89
2022-08-16T17:11:54.877Z,27.96
2022-08-16T17:14:32.793Z,27.40
2022-08-16T17:17:02.305Z,27.42
2022-08-16T17:19:31.397Z,26.97
2022-08-16T17:21:59.464Z,26.72
2022-08-16T17:24:33.215Z,26.33
2022-08-16T17:27:08.511Z,26.46
2022-08-16T17:29:45.978Z,26.31
2022-08-16T17:32:44.605Z,25.71
2022-08-16T17:35:10.794Z,25.60
2022-08-16T17:37:42.364Z,25.03
2022-08-16T17:40:23.208Z,25.34
2022-08-16T17:43:03.774Z,24.88
2022-08-16T17:45:30.417Z,24.85
2022-08-16T17:47:57.055Z,24.59
2022-08-16T17:50:24.480Z,25.01
2022-08-16T17:52:53.856Z,24.90
2022-08-16T17:55:29.593Z,24.87
2022-08-16T17:57:56.785Z,24.35
2022-08-16T18:00:24.824Z,24.41
2022-08-16T18:02:53.350Z,24.33
2022-08-16T18:05:20.329Z,24.34
2022-08-16T18:07:47.571Z,24.13
2022-08-16T18:10:23.732Z,23.94
2022-08-16T18:13:01.490Z,23.62
2022-08-16T18:15:28.800Z,23.63
2022-08-16T18:17:55.468Z,23.26
2022-08-16T18:20:42.349Z,23.35
2022-08-16T18:23:16.080Z,23.10
2022-08-16T18:25:48.848Z,22.65
2022-08-16T18:28:16.600Z,22.39
2022-08-16T18:30:46.803Z,22.38
2022-08-16T18:33:19.792Z,22.02
2022-08-16T18:35:46.888Z,22.01
2022-08-16T18:38:13.531Z,21.68
2022-08-16T18:40:40.485Z,21.75
2022-08-16T18:43:14.612Z,21.99
2022-08-16T18:45:42.763Z,21.62
2022-08-16T18:48:10.883Z,21.61
2022-08-16T18:50:59.471Z,21.49
2022-08-16T18:53:27.727Z,21.47
2022-08-16T18:55:57.995Z,21.36
2022-08-16T18:58:25.644Z,21.24
2022-08-16T19:00:56.453Z,21.20
2022-08-16T19:03:32.304Z,20.90
2022-08-16T19:06:05.831Z,20.93
2022-08-16T19:08:35.706Z,20.81
2022-08-16T19:11:03.911Z,20.81
2022-08-16T19:13:32.045Z,20.65
2022-08-16T19:16:00.087Z,20.57
2022-08-16T19:18:28.108Z,20.31
2022-08-16T19:21:03.304Z,20.40
2022-08-16T19:23:35.692Z,20.34
2022-08-16T19:26:06.776Z,20.53
2022-08-16T19:28:51.182Z,20.31
2022-08-16T19:31:29.736Z,20.31
2022-08-16T19:33:56.884Z,20.30
2022-08-16T19:36:35.755Z,20.33
2022-08-16T19:39:10.228Z,20.42
2022-08-16T19:41:40.471Z,20.43
2022-08-16T19:44:08.244Z,20.21
2022-08-16T19:46:35.683Z,20.39
2022-08-16T19:49:02.858Z,20.26
2022-08-16T19:51:29.690Z,20.08
2022-08-16T19:53:56.402Z,19.84
2022-08-16T19:56:25.501Z,19.75
2022-08-16T19:59:17.315Z,19.71
2022-08-16T20:01:42.275Z,19.96
2022-08-16T20:04:12.765Z,20.20
2022-08-16T20:06:41.632Z,20.24
2022-08-16T20:09:10.386Z,20.21
2022-08-16T20:11:41.163Z,19.99
2022-08-16T20:14:07.884Z,20.01
2022-08-16T20:16:34.505Z,19.91
2022-08-16T20:19:01.284Z,19.94
2022-08-16T20:21:28.397Z,19.98
2022-08-16T20:24:09.914Z,19.85
2022-08-16T20:26:41.909Z,19.87
2022-08-16T20:29:08.501Z,19.71
2022-08-16T20:31:35.259Z,19.80
2022-08-16T20:34:02.085Z,19.78
2022-08-16T20:36:29.799Z,20.03
2022-08-16T20:38:59.791Z,19.88
2022-08-16T20:41:27.337Z,19.56
2022-08-16T20:43:54.990Z,19.63
2022-08-16T20:46:22.348Z,19.43
2022-08-16T20:48:49.565Z,19.36
2022-08-16T20:51:16.713Z,19.41
2022-08-16T20:53:44.298Z,19.32
2022-08-16T20:56:11.563Z,19.34
2022-08-16T20:58:38.799Z,19.35
2022-08-16T21:01:06.995Z,19.18
2022-08-16T21:03:33.763Z,19.01
2022-08-16T21:06:04.453Z,19.04
2022-08-16T21:08:52.009Z,19.05
2022-08-16T21:11:21.468Z,18.90
2022-08-16T21:13:48.382Z,18.84
2022-08-16T21:16:16.360Z,18.86
2022-08-16T21:18:43.016Z,18.69
2022-08-16T21:21:09.830Z,18.78
2022-08-16T21:23:36.440Z,18.75
2022-08-16T21:26:07.343Z,18.79
2022-08-16T21:28:43.329Z,18.74
2022-08-16T21:31:11.954Z,18.62
2022-08-16T21:33:39.220Z,18.46
2022-08-16T21:36:06.645Z,18.69
2022-08-16T21:38:33.336Z,19.23
2022-08-16T21:41:00.447Z,18.86
2022-08-16T21:43:31.838Z,18.51
2022-08-16T21:45:59.542Z,18.83
2022-08-16T21:48:34.724Z,19.07
2022-08-16T21:51:08.065Z,18.83
2022-08-16T21:53:35.799Z,19.05
2022-08-16T21:56:03.637Z,18.59
2022-08-16T21:58:30.806Z,18.58
2022-08-16T22:00:57.670Z,18.85
2022-08-16T22:03:24.616Z,18.90
2022-08-16T22:06:11.815Z,18.57
2022-08-16T22:08:50.308Z,18.41
2022-08-16T22:11:23.141Z,18.13
2022-08-16T22:13:58.340Z,18.24
2022-08-16T22:16:31.789Z,18.28
2022-08-16T22:18:59.184Z,18.38
2022-08-16T22:21:26.177Z,18.56
2022-08-16T22:23:56.667Z,18.55
2022-08-16T22:26:31.670Z,18.36
2022-08-16T22:29:03.348Z,18.37
2022-08-16T22:31:29.959Z,18.35
2022-08-16T22:33:56.872Z,18.56
2022-08-16T22:36:28.469Z,18.41
2022-08-16T22:38:58.838Z,18.40
2022-08-16T22:41:28.528Z,18.62
2022-08-16T22:43:55.727Z,18.56
2022-08-16T22:46:22.466Z,18.43
2022-08-16T22:48:52.193Z,18.23
2022-08-16T22:51:20.580Z,18.73
2022-08-16T22:53:48.080Z,18.57
2022-08-16T22:56:18.336Z,18.65
2022-08-16T22:58:46.055Z,18.59
2022-08-16T23:01:15.558Z,18.40
2022-08-16T23:03:43.126Z,18.51
2022-08-16T23:06:11.859Z,18.42
2022-08-16T23:08:41.199Z,18.50
2022-08-16T23:11:11.328Z,18.58
2022-08-16T23:13:49.736Z,18.36
2022-08-16T23:16:25.056Z,18.52
2022-08-16T23:18:59.993Z,18.43
2022-08-16T23:21:27.432Z,18.65
2022-08-16T23:23:54.114Z,18.81
2022-08-16T23:26:46.134Z,18.84
2022-08-16T23:29:19.779Z,18.93
2022-08-16T23:31:56.892Z,18.84
2022-08-16T23:34:25.077Z,18.79
2022-08-16T23:36:51.822Z,18.68
2022-08-16T23:39:18.512Z,18.72
2022-08-16T23:41:45.272Z,19.06
2022-08-16T23:44:55.175Z,19.34
2022-08-16T23:46:58.989Z,19.26
2022-08-16T23:49:58.240Z,19.58
2022-08-16T23:52:12.535Z,19.10
2022-08-16T23:54:39.365Z,19.45
2022-08-16T23:57:06.053Z,19.45
2022-08-16T23:59:37.460Z,19.51
